sensor_id;sensor_type;location;lat;lon;timestamp;P1;durP1;ratioP1;P2;durP2;ratioP2
12972;SDS011;6551;51.056;9.466;2023-04-24T00:01:00;1.23;;;0.60;;
12972;SDS011;6551;51.056;9.466;2023-04-24T00:03:26;1.90;;;0.73;;
12972;SDS011;6551;51.056;9.466;2023-04-24T00:05:54;1.60;;;0.73;;
12972;SDS011;6551;51.056;9.466;2023-04-24T00:08:20;1.40;;;0.80;;
12972;SDS011;6551;51.056;9.466;2023-04-24T00:10:47;1.50;;;0.60;;
12972;SDS011;6551;51.056;9.466;2023-04-24T00:13:13;1.53;;;0.50;;
12972;SDS011;6551;51.056;9.466;2023-04-24T00:15:39;3.63;;;0.70;;
12972;SDS011;6551;51.056;9.466;2023-04-24T00:18:04;1.00;;;0.60;;
12972;SDS011;6551;51.056;9.466;2023-04-24T00:20:30;1.13;;;0.73;;
12972;SDS011;6551;51.056;9.466;2023-04-24T00:23:00;0.60;;;0.50;;
12972;SDS011;6551;51.056;9.466;2023-04-24T00:25:27;1.53;;;0.80;;
12972;SDS011;6551;51.056;9.466;2023-04-24T00:27:53;4.30;;;0.83;;
12972;SDS011;6551;51.056;9.466;2023-04-24T00:30:18;1.00;;;0.80;;
12972;SDS011;6551;51.056;9.466;2023-04-24T00:32:44;2.33;;;0.87;;
12972;SDS011;6551;51.056;9.466;2023-04-24T00:35:10;1.23;;;0.50;;
12972;SDS011;6551;51.056;9.466;2023-04-24T00:37:36;1.93;;;0.60;;
12972;SDS011;6551;51.056;9.466;2023-04-24T00:40:02;1.90;;;0.90;;
12972;SDS011;6551;51.056;9.466;2023-04-24T00:42:28;3.17;;;0.70;;
12972;SDS011;6551;51.056;9.466;2023-04-24T00:44:56;0.97;;;0.57;;
12972;SDS011;6551;51.056;9.466;2023-04-24T00:47:23;1.40;;;0.70;;
12972;SDS011;6551;51.056;9.466;2023-04-24T00:49:51;2.17;;;0.70;;
12972;SDS011;6551;51.056;9.466;2023-04-24T00:52:17;2.37;;;0.80;;
12972;SDS011;6551;51.056;9.466;2023-04-24T00:54:46;2.37;;;0.70;;
12972;SDS011;6551;51.056;9.466;2023-04-24T00:57:12;3.37;;;0.60;;
12972;SDS011;6551;51.056;9.466;2023-04-24T00:59:39;4.27;;;0.80;;
12972;SDS011;6551;51.056;9.466;2023-04-24T01:02:08;1.73;;;0.80;;
12972;SDS011;6551;51.056;9.466;2023-04-24T01:04:37;1.80;;;0.93;;
12972;SDS011;6551;51.056;9.466;2023-04-24T01:07:04;5.37;;;1.00;;
12972;SDS011;6551;51.056;9.466;2023-04-24T01:09:38;3.67;;;1.10;;
12972;SDS011;6551;51.056;9.466;2023-04-24T01:12:08;2.23;;;0.90;;
12972;SDS011;6551;51.056;9.466;2023-04-24T01:14:36;2.20;;;0.90;;
12972;SDS011;6551;51.056;9.466;2023-04-24T01:17:03;1.43;;;1.00;;
12972;SDS011;6551;51.056;9.466;2023-04-24T01:19:28;2.27;;;1.23;;
12972;SDS011;6551;51.056;9.466;2023-04-24T01:21:54;2.83;;;1.03;;
12972;SDS011;6551;51.056;9.466;2023-04-24T01:24:26;1.43;;;1.00;;
12972;SDS011;6551;51.056;9.466;2023-04-24T01:26:54;1.70;;;1.30;;
12972;SDS011;6551;51.056;9.466;2023-04-24T01:29:20;2.63;;;1.43;;
12972;SDS011;6551;51.056;9.466;2023-04-24T01:31:46;1.50;;;1.10;;
12972;SDS011;6551;51.056;9.466;2023-04-24T01:34:12;2.93;;;1.23;;
12972;SDS011;6551;51.056;9.466;2023-04-24T01:36:41;2.73;;;1.00;;
12972;SDS011;6551;51.056;9.466;2023-04-24T01:39:08;4.20;;;1.27;;
12972;SDS011;6551;51.056;9.466;2023-04-24T01:41:35;1.60;;;1.03;;
12972;SDS011;6551;51.056;9.466;2023-04-24T01:44:01;1.40;;;1.20;;
12972;SDS011;6551;51.056;9.466;2023-04-24T01:46:28;2.50;;;1.00;;
12972;SDS011;6551;51.056;9.466;2023-04-24T01:48:55;1.80;;;1.00;;
12972;SDS011;6551;51.056;9.466;2023-04-24T01:51:21;1.60;;;1.00;;
12972;SDS011;6551;51.056;9.466;2023-04-24T01:53:46;1.37;;;0.97;;
12972;SDS011;6551;51.056;9.466;2023-04-24T01:56:12;2.40;;;1.10;;
12972;SDS011;6551;51.056;9.466;2023-04-24T01:58:42;3.13;;;0.90;;
12972;SDS011;6551;51.056;9.466;2023-04-24T02:01:08;3.03;;;0.90;;
12972;SDS011;6551;51.056;9.466;2023-04-24T02:03:41;3.07;;;0.90;;
12972;SDS011;6551;51.056;9.466;2023-04-24T02:06:07;2.07;;;0.80;;
12972;SDS011;6551;51.056;9.466;2023-04-24T02:08:32;1.83;;;0.70;;
12972;SDS011;6551;51.056;9.466;2023-04-24T02:10:59;1.53;;;0.80;;
12972;SDS011;6551;51.056;9.466;2023-04-24T02:13:27;2.47;;;0.57;;
12972;SDS011;6551;51.056;9.466;2023-04-24T02:15:54;1.33;;;0.93;;
12972;SDS011;6551;51.056;9.466;2023-04-24T02:18:19;1.30;;;0.60;;
12972;SDS011;6551;51.056;9.466;2023-04-24T02:20:47;1.63;;;0.60;;
12972;SDS011;6551;51.056;9.466;2023-04-24T02:23:13;3.27;;;0.70;;
12972;SDS011;6551;51.056;9.466;2023-04-24T02:25:40;0.90;;;0.67;;
12972;SDS011;6551;51.056;9.466;2023-04-24T02:28:06;1.00;;;0.73;;
12972;SDS011;6551;51.056;9.466;2023-04-24T02:30:33;1.77;;;0.80;;
12972;SDS011;6551;51.056;9.466;2023-04-24T02:32:58;1.17;;;0.80;;
12972;SDS011;6551;51.056;9.466;2023-04-24T02:35:24;2.27;;;1.00;;
12972;SDS011;6551;51.056;9.466;2023-04-24T02:37:50;1.77;;;0.93;;
12972;SDS011;6551;51.056;9.466;2023-04-24T02:40:16;3.40;;;0.80;;
12972;SDS011;6551;51.056;9.466;2023-04-24T02:42:42;3.70;;;0.90;;
12972;SDS011;6551;51.056;9.466;2023-04-24T02:45:07;2.20;;;1.27;;
12972;SDS011;6551;51.056;9.466;2023-04-24T02:47:33;1.57;;;0.93;;
12972;SDS011;6551;51.056;9.466;2023-04-24T02:50:00;2.53;;;1.20;;
12972;SDS011;6551;51.056;9.466;2023-04-24T02:52:28;3.37;;;0.90;;
12972;SDS011;6551;51.056;9.466;2023-04-24T02:54:54;1.20;;;0.80;;
12972;SDS011;6551;51.056;9.466;2023-04-24T02:57:20;1.40;;;0.80;;
12972;SDS011;6551;51.056;9.466;2023-04-24T02:59:47;1.73;;;0.80;;
12972;SDS011;6551;51.056;9.466;2023-04-24T03:02:12;1.33;;;0.70;;
12972;SDS011;6551;51.056;9.466;2023-04-24T03:04:38;1.53;;;0.80;;
12972;SDS011;6551;51.056;9.466;2023-04-24T03:07:05;3.03;;;1.07;;
12972;SDS011;6551;51.056;9.466;2023-04-24T03:09:32;1.37;;;0.80;;
12972;SDS011;6551;51.056;9.466;2023-04-24T03:11:59;2.53;;;0.90;;
12972;SDS011;6551;51.056;9.466;2023-04-24T03:14:25;2.00;;;0.97;;
12972;SDS011;6551;51.056;9.466;2023-04-24T03:16:50;2.23;;;0.90;;
12972;SDS011;6551;51.056;9.466;2023-04-24T03:19:16;1.67;;;0.87;;
12972;SDS011;6551;51.056;9.466;2023-04-24T03:21:42;3.77;;;1.00;;
12972;SDS011;6551;51.056;9.466;2023-04-24T03:24:09;4.50;;;1.10;;
12972;SDS011;6551;51.056;9.466;2023-04-24T03:26:36;1.43;;;0.90;;
12972;SDS011;6551;51.056;9.466;2023-04-24T03:29:03;1.10;;;1.00;;
12972;SDS011;6551;51.056;9.466;2023-04-24T03:31:30;2.10;;;1.00;;
12972;SDS011;6551;51.056;9.466;2023-04-24T03:33:55;3.00;;;1.13;;
12972;SDS011;6551;51.056;9.466;2023-04-24T03:36:21;1.20;;;1.00;;
12972;SDS011;6551;51.056;9.466;2023-04-24T03:38:47;5.13;;;1.07;;
12972;SDS011;6551;51.056;9.466;2023-04-24T03:41:15;1.27;;;0.77;;
12972;SDS011;6551;51.056;9.466;2023-04-24T03:43:41;1.20;;;0.90;;
12972;SDS011;6551;51.056;9.466;2023-04-24T03:46:07;1.60;;;0.87;;
12972;SDS011;6551;51.056;9.466;2023-04-24T03:48:34;1.60;;;0.70;;
12972;SDS011;6551;51.056;9.466;2023-04-24T03:51:00;1.83;;;0.90;;
12972;SDS011;6551;51.056;9.466;2023-04-24T03:53:26;1.33;;;0.80;;
12972;SDS011;6551;51.056;9.466;2023-04-24T03:55:52;2.20;;;0.87;;
12972;SDS011;6551;51.056;9.466;2023-04-24T03:58:18;1.07;;;0.60;;
12972;SDS011;6551;51.056;9.466;2023-04-24T04:00:44;1.17;;;0.63;;
12972;SDS011;6551;51.056;9.466;2023-04-24T04:03:12;2.23;;;1.10;;
12972;SDS011;6551;51.056;9.466;2023-04-24T04:05:40;0.97;;;0.50;;
12972;SDS011;6551;51.056;9.466;2023-04-24T04:08:06;1.43;;;0.60;;
12972;SDS011;6551;51.056;9.466;2023-04-24T04:10:31;0.73;;;0.47;;
12972;SDS011;6551;51.056;9.466;2023-04-24T04:12:58;0.93;;;0.53;;
12972;SDS011;6551;51.056;9.466;2023-04-24T04:15:24;1.10;;;0.70;;
12972;SDS011;6551;51.056;9.466;2023-04-24T04:17:50;2.00;;;0.90;;
12972;SDS011;6551;51.056;9.466;2023-04-24T04:20:17;1.47;;;0.60;;
12972;SDS011;6551;51.056;9.466;2023-04-24T04:22:44;1.03;;;0.60;;
12972;SDS011;6551;51.056;9.466;2023-04-24T04:25:09;1.87;;;0.57;;
12972;SDS011;6551;51.056;9.466;2023-04-24T04:27:37;1.07;;;0.70;;
12972;SDS011;6551;51.056;9.466;2023-04-24T04:30:03;1.30;;;0.80;;
12972;SDS011;6551;51.056;9.466;2023-04-24T04:32:36;1.37;;;0.90;;
12972;SDS011;6551;51.056;9.466;2023-04-24T04:35:03;1.60;;;0.70;;
12972;SDS011;6551;51.056;9.466;2023-04-24T04:37:33;2.03;;;1.00;;
12972;SDS011;6551;51.056;9.466;2023-04-24T04:39:59;2.20;;;0.90;;
12972;SDS011;6551;51.056;9.466;2023-04-24T04:42:26;1.57;;;0.90;;
12972;SDS011;6551;51.056;9.466;2023-04-24T04:44:52;3.90;;;1.07;;
12972;SDS011;6551;51.056;9.466;2023-04-24T04:47:18;1.87;;;1.00;;
12972;SDS011;6551;51.056;9.466;2023-04-24T04:49:49;2.73;;;1.10;;
12972;SDS011;6551;51.056;9.466;2023-04-24T04:52:17;2.00;;;1.10;;
12972;SDS011;6551;51.056;9.466;2023-04-24T04:54:43;2.20;;;1.30;;
12972;SDS011;6551;51.056;9.466;2023-04-24T04:57:09;2.00;;;1.03;;
12972;SDS011;6551;51.056;9.466;2023-04-24T04:59:35;1.30;;;1.20;;
12972;SDS011;6551;51.056;9.466;2023-04-24T05:02:03;1.83;;;1.43;;
12972;SDS011;6551;51.056;9.466;2023-04-24T05:04:30;1.50;;;1.40;;
12972;SDS011;6551;51.056;9.466;2023-04-24T05:06:56;1.60;;;1.10;;
12972;SDS011;6551;51.056;9.466;2023-04-24T05:09:22;3.17;;;1.40;;
12972;SDS011;6551;51.056;9.466;2023-04-24T05:11:52;2.27;;;1.30;;
12972;SDS011;6551;51.056;9.466;2023-04-24T05:14:18;1.67;;;1.20;;
12972;SDS011;6551;51.056;9.466;2023-04-24T05:16:44;1.30;;;1.00;;
12972;SDS011;6551;51.056;9.466;2023-04-24T05:19:10;1.37;;;1.27;;
12972;SDS011;6551;51.056;9.466;2023-04-24T05:21:41;1.43;;;1.20;;
12972;SDS011;6551;51.056;9.466;2023-04-24T05:24:07;1.70;;;1.20;;
12972;SDS011;6551;51.056;9.466;2023-04-24T05:26:33;4.73;;;1.20;;
12972;SDS011;6551;51.056;9.466;2023-04-24T05:29:02;3.13;;;1.33;;
12972;SDS011;6551;51.056;9.466;2023-04-24T05:31:30;2.30;;;1.10;;
12972;SDS011;6551;51.056;9.466;2023-04-24T05:33:56;1.27;;;1.10;;
12972;SDS011;6551;51.056;9.466;2023-04-24T05:36:21;2.97;;;1.10;;
12972;SDS011;6551;51.056;9.466;2023-04-24T05:38:47;1.73;;;1.17;;
12972;SDS011;6551;51.056;9.466;2023-04-24T05:41:14;1.80;;;1.20;;
12972;SDS011;6551;51.056;9.466;2023-04-24T05:43:41;2.80;;;1.23;;
12972;SDS011;6551;51.056;9.466;2023-04-24T05:46:06;1.77;;;1.20;;
12972;SDS011;6551;51.056;9.466;2023-04-24T05:48:32;2.60;;;1.47;;
12972;SDS011;6551;51.056;9.466;2023-04-24T05:50:58;2.13;;;1.30;;
12972;SDS011;6551;51.056;9.466;2023-04-24T05:53:25;3.20;;;0.90;;
12972;SDS011;6551;51.056;9.466;2023-04-24T05:55:51;1.97;;;1.03;;
12972;SDS011;6551;51.056;9.466;2023-04-24T05:58:16;2.47;;;1.40;;
12972;SDS011;6551;51.056;9.466;2023-04-24T06:00:43;1.90;;;1.17;;
12972;SDS011;6551;51.056;9.466;2023-04-24T06:03:12;1.73;;;1.10;;
12972;SDS011;6551;51.056;9.466;2023-04-24T06:05:37;3.20;;;1.33;;
12972;SDS011;6551;51.056;9.466;2023-04-24T06:08:03;3.97;;;1.40;;
12972;SDS011;6551;51.056;9.466;2023-04-24T06:10:29;1.83;;;1.60;;
12972;SDS011;6551;51.056;9.466;2023-04-24T06:12:56;2.10;;;1.57;;
12972;SDS011;6551;51.056;9.466;2023-04-24T06:15:29;1.73;;;1.50;;
12972;SDS011;6551;51.056;9.466;2023-04-24T06:17:56;4.97;;;2.20;;
12972;SDS011;6551;51.056;9.466;2023-04-24T06:20:22;2.43;;;1.63;;
12972;SDS011;6551;51.056;9.466;2023-04-24T06:22:49;2.10;;;1.90;;
12972;SDS011;6551;51.056;9.466;2023-04-24T06:25:15;2.80;;;1.40;;
12972;SDS011;6551;51.056;9.466;2023-04-24T06:27:41;1.93;;;1.50;;
12972;SDS011;6551;51.056;9.466;2023-04-24T06:30:07;3.47;;;2.00;;
12972;SDS011;6551;51.056;9.466;2023-04-24T06:32:36;2.10;;;1.90;;
12972;SDS011;6551;51.056;9.466;2023-04-24T06:35:02;3.17;;;2.43;;
12972;SDS011;6551;51.056;9.466;2023-04-24T06:37:29;2.20;;;2.00;;
12972;SDS011;6551;51.056;9.466;2023-04-24T06:39:55;2.80;;;1.53;;
12972;SDS011;6551;51.056;9.466;2023-04-24T06:42:22;2.17;;;1.70;;
12972;SDS011;6551;51.056;9.466;2023-04-24T06:44:50;3.93;;;1.83;;
12972;SDS011;6551;51.056;9.466;2023-04-24T06:47:16;3.03;;;1.90;;
12972;SDS011;6551;51.056;9.466;2023-04-24T06:49:43;2.63;;;1.83;;
12972;SDS011;6551;51.056;9.466;2023-04-24T06:52:09;2.47;;;1.70;;
12972;SDS011;6551;51.056;9.466;2023-04-24T06:54:34;2.30;;;2.10;;
12972;SDS011;6551;51.056;9.466;2023-04-24T06:57:00;3.03;;;2.37;;
12972;SDS011;6551;51.056;9.466;2023-04-24T06:59:29;2.10;;;1.80;;
12972;SDS011;6551;51.056;9.466;2023-04-24T07:01:56;2.93;;;2.20;;
12972;SDS011;6551;51.056;9.466;2023-04-24T07:04:23;6.30;;;2.80;;
12972;SDS011;6551;51.056;9.466;2023-04-24T07:06:50;2.60;;;2.40;;
12972;SDS011;6551;51.056;9.466;2023-04-24T07:09:16;2.50;;;2.27;;
12972;SDS011;6551;51.056;9.466;2023-04-24T07:11:44;4.77;;;2.63;;
12972;SDS011;6551;51.056;9.466;2023-04-24T07:14:10;3.00;;;2.43;;
12972;SDS011;6551;51.056;9.466;2023-04-24T07:16:37;3.00;;;2.67;;
12972;SDS011;6551;51.056;9.466;2023-04-24T07:19:03;2.53;;;2.33;;
12972;SDS011;6551;51.056;9.466;2023-04-24T07:21:29;4.37;;;2.43;;
12972;SDS011;6551;51.056;9.466;2023-04-24T07:23:56;2.93;;;2.23;;
12972;SDS011;6551;51.056;9.466;2023-04-24T07:26:25;4.97;;;2.20;;
12972;SDS011;6551;51.056;9.466;2023-04-24T07:28:54;4.80;;;2.60;;
12972;SDS011;6551;51.056;9.466;2023-04-24T07:31:22;2.60;;;2.23;;
12972;SDS011;6551;51.056;9.466;2023-04-24T07:33:49;3.60;;;2.50;;
12972;SDS011;6551;51.056;9.466;2023-04-24T07:36:15;2.40;;;2.20;;
12972;SDS011;6551;51.056;9.466;2023-04-24T07:38:43;3.37;;;2.47;;
12972;SDS011;6551;51.056;9.466;2023-04-24T07:41:13;2.33;;;2.00;;
12972;SDS011;6551;51.056;9.466;2023-04-24T07:43:40;3.57;;;2.60;;
12972;SDS011;6551;51.056;9.466;2023-04-24T07:46:07;3.67;;;2.53;;
12972;SDS011;6551;51.056;9.466;2023-04-24T07:48:35;2.57;;;2.20;;
12972;SDS011;6551;51.056;9.466;2023-04-24T07:51:01;2.50;;;2.20;;
12972;SDS011;6551;51.056;9.466;2023-04-24T07:53:27;3.67;;;2.63;;
12972;SDS011;6551;51.056;9.466;2023-04-24T07:55:54;4.30;;;2.60;;
12972;SDS011;6551;51.056;9.466;2023-04-24T07:58:21;2.93;;;2.60;;
12972;SDS011;6551;51.056;9.466;2023-04-24T08:00:48;3.07;;;2.40;;
12972;SDS011;6551;51.056;9.466;2023-04-24T08:03:14;3.20;;;2.77;;
12972;SDS011;6551;51.056;9.466;2023-04-24T08:05:43;3.73;;;2.53;;
12972;SDS011;6551;51.056;9.466;2023-04-24T08:08:08;2.87;;;2.40;;
12972;SDS011;6551;51.056;9.466;2023-04-24T08:10:35;3.90;;;3.10;;
12972;SDS011;6551;51.056;9.466;2023-04-24T08:13:03;6.00;;;2.13;;
12972;SDS011;6551;51.056;9.466;2023-04-24T08:15:29;2.60;;;2.07;;
12972;SDS011;6551;51.056;9.466;2023-04-24T08:17:55;3.43;;;2.40;;
12972;SDS011;6551;51.056;9.466;2023-04-24T08:20:21;3.47;;;1.90;;
12972;SDS011;6551;51.056;9.466;2023-04-24T08:22:47;3.97;;;2.37;;
12972;SDS011;6551;51.056;9.466;2023-04-24T08:25:13;3.23;;;2.30;;
12972;SDS011;6551;51.056;9.466;2023-04-24T08:27:39;3.33;;;2.53;;
12972;SDS011;6551;51.056;9.466;2023-04-24T08:30:05;3.40;;;2.30;;
12972;SDS011;6551;51.056;9.466;2023-04-24T08:32:33;4.47;;;2.27;;
12972;SDS011;6551;51.056;9.466;2023-04-24T08:34:59;3.23;;;2.13;;
12972;SDS011;6551;51.056;9.466;2023-04-24T08:37:25;3.47;;;2.50;;
12972;SDS011;6551;51.056;9.466;2023-04-24T08:39:52;2.93;;;2.10;;
12972;SDS011;6551;51.056;9.466;2023-04-24T08:42:20;4.70;;;2.40;;
12972;SDS011;6551;51.056;9.466;2023-04-24T08:44:48;2.97;;;2.30;;
12972;SDS011;6551;51.056;9.466;2023-04-24T08:47:14;2.50;;;2.20;;
12972;SDS011;6551;51.056;9.466;2023-04-24T08:49:41;5.17;;;2.77;;
12972;SDS011;6551;51.056;9.466;2023-04-24T08:52:07;4.37;;;2.83;;
12972;SDS011;6551;51.056;9.466;2023-04-24T08:54:39;3.10;;;2.40;;
12972;SDS011;6551;51.056;9.466;2023-04-24T08:57:08;4.20;;;2.50;;
12972;SDS011;6551;51.056;9.466;2023-04-24T08:59:38;5.37;;;2.53;;
12972;SDS011;6551;51.056;9.466;2023-04-24T09:02:04;4.70;;;2.70;;
12972;SDS011;6551;51.056;9.466;2023-04-24T09:04:31;6.07;;;4.23;;
12972;SDS011;6551;51.056;9.466;2023-04-24T09:06:58;10.30;;;3.20;;
12972;SDS011;6551;51.056;9.466;2023-04-24T09:09:27;4.10;;;3.50;;
12972;SDS011;6551;51.056;9.466;2023-04-24T09:11:57;5.10;;;3.67;;
12972;SDS011;6551;51.056;9.466;2023-04-24T09:14:25;5.67;;;3.87;;
12972;SDS011;6551;51.056;9.466;2023-04-24T09:16:53;4.73;;;3.17;;
12972;SDS011;6551;51.056;9.466;2023-04-24T09:19:18;3.87;;;3.43;;
12972;SDS011;6551;51.056;9.466;2023-04-24T09:21:47;5.43;;;4.33;;
12972;SDS011;6551;51.056;9.466;2023-04-24T09:24:17;4.13;;;3.50;;
12972;SDS011;6551;51.056;9.466;2023-04-24T09:26:47;3.97;;;3.17;;
12972;SDS011;6551;51.056;9.466;2023-04-24T09:29:20;4.20;;;3.43;;
12972;SDS011;6551;51.056;9.466;2023-04-24T09:31:47;3.87;;;3.47;;
12972;SDS011;6551;51.056;9.466;2023-04-24T09:34:13;4.40;;;3.43;;
12972;SDS011;6551;51.056;9.466;2023-04-24T09:36:41;4.17;;;3.40;;
12972;SDS011;6551;51.056;9.466;2023-04-24T09:39:08;7.57;;;3.43;;
12972;SDS011;6551;51.056;9.466;2023-04-24T09:44:22;5.37;;;3.27;;
12972;SDS011;6551;51.056;9.466;2023-04-24T09:46:59;3.87;;;3.27;;
12972;SDS011;6551;51.056;9.466;2023-04-24T09:49:27;3.87;;;2.93;;
12972;SDS011;6551;51.056;9.466;2023-04-24T09:52:02;5.50;;;2.90;;
12972;SDS011;6551;51.056;9.466;2023-04-24T09:54:37;2.30;;;2.10;;
12972;SDS011;6551;51.056;9.466;2023-04-24T09:57:04;3.13;;;2.63;;
12972;SDS011;6551;51.056;9.466;2023-04-24T09:59:34;2.97;;;2.67;;
12972;SDS011;6551;51.056;9.466;2023-04-24T10:02:01;4.83;;;3.10;;
12972;SDS011;6551;51.056;9.466;2023-04-24T10:04:27;2.67;;;2.30;;
12972;SDS011;6551;51.056;9.466;2023-04-24T10:06:55;3.20;;;2.50;;
12972;SDS011;6551;51.056;9.466;2023-04-24T10:09:24;3.93;;;2.77;;
12972;SDS011;6551;51.056;9.466;2023-04-24T10:11:53;3.50;;;2.70;;
12972;SDS011;6551;51.056;9.466;2023-04-24T10:14:21;3.03;;;2.73;;
12972;SDS011;6551;51.056;9.466;2023-04-24T10:16:52;4.10;;;2.60;;
12972;SDS011;6551;51.056;9.466;2023-04-24T10:19:20;3.70;;;2.60;;
12972;SDS011;6551;51.056;9.466;2023-04-24T10:21:49;3.63;;;2.40;;
12972;SDS011;6551;51.056;9.466;2023-04-24T10:24:16;2.73;;;1.93;;
12972;SDS011;6551;51.056;9.466;2023-04-24T10:26:48;2.17;;;1.97;;
12972;SDS011;6551;51.056;9.466;2023-04-24T10:29:15;2.20;;;1.97;;
12972;SDS011;6551;51.056;9.466;2023-04-24T10:31:45;4.03;;;1.80;;
12972;SDS011;6551;51.056;9.466;2023-04-24T10:34:11;2.13;;;1.93;;
12972;SDS011;6551;51.056;9.466;2023-04-24T10:36:41;3.80;;;1.60;;
12972;SDS011;6551;51.056;9.466;2023-04-24T10:39:13;3.00;;;1.77;;
12972;SDS011;6551;51.056;9.466;2023-04-24T10:41:42;3.17;;;2.10;;
12972;SDS011;6551;51.056;9.466;2023-04-24T10:44:12;2.43;;;1.40;;
12972;SDS011;6551;51.056;9.466;2023-04-24T10:46:43;2.17;;;1.63;;
12972;SDS011;6551;51.056;9.466;2023-04-24T10:49:14;3.50;;;2.00;;
12972;SDS011;6551;51.056;9.466;2023-04-24T10:51:53;3.50;;;2.53;;
12972;SDS011;6551;51.056;9.466;2023-04-24T10:59:52;5.23;;;2.80;;
12972;SDS011;6551;51.056;9.466;2023-04-24T11:02:48;2.30;;;2.10;;
12972;SDS011;6551;51.056;9.466;2023-04-24T11:05:16;3.20;;;2.13;;
12972;SDS011;6551;51.056;9.466;2023-04-24T11:10:47;2.40;;;1.93;;
12972;SDS011;6551;51.056;9.466;2023-04-24T11:19:08;2.37;;;2.00;;
12972;SDS011;6551;51.056;9.466;2023-04-24T11:21:42;2.90;;;2.00;;
12972;SDS011;6551;51.056;9.466;2023-04-24T11:24:28;2.30;;;1.90;;
12972;SDS011;6551;51.056;9.466;2023-04-24T11:37:53;0.40;;;0.40;;
12972;SDS011;6551;51.056;9.466;2023-04-24T11:40:20;0.57;;;0.40;;
12972;SDS011;6551;51.056;9.466;2023-04-24T11:42:54;0.40;;;0.30;;
12972;SDS011;6551;51.056;9.466;2023-04-24T11:45:26;0.83;;;0.23;;
12972;SDS011;6551;51.056;9.466;2023-04-24T11:47:57;0.60;;;0.50;;
12972;SDS011;6551;51.056;9.466;2023-04-24T11:50:25;0.40;;;0.30;;
12972;SDS011;6551;51.056;9.466;2023-04-24T11:52:52;0.20;;;0.20;;
12972;SDS011;6551;51.056;9.466;2023-04-24T11:57:49;0.30;;;0.30;;
12972;SDS011;6551;51.056;9.466;2023-04-24T12:00:25;0.60;;;0.20;;
12972;SDS011;6551;51.056;9.466;2023-04-24T12:03:09;0.30;;;0.30;;
12972;SDS011;6551;51.056;9.466;2023-04-24T12:05:36;0.30;;;0.30;;
12972;SDS011;6551;51.056;9.466;2023-04-24T12:08:03;0.40;;;0.30;;
12972;SDS011;6551;51.056;9.466;2023-04-24T12:10:31;0.40;;;0.20;;
12972;SDS011;6551;51.056;9.466;2023-04-24T12:12:58;0.57;;;0.20;;
12972;SDS011;6551;51.056;9.466;2023-04-24T12:15:26;0.20;;;0.10;;
12972;SDS011;6551;51.056;9.466;2023-04-24T12:17:54;0.37;;;0.30;;
12972;SDS011;6551;51.056;9.466;2023-04-24T12:20:29;3.70;;;0.30;;
12972;SDS011;6551;51.056;9.466;2023-04-24T12:22:57;0.60;;;0.20;;
12972;SDS011;6551;51.056;9.466;2023-04-24T12:25:29;0.50;;;0.30;;
12972;SDS011;6551;51.056;9.466;2023-04-24T12:30:31;0.87;;;0.60;;
12972;SDS011;6551;51.056;9.466;2023-04-24T12:33:05;0.40;;;0.33;;
12972;SDS011;6551;51.056;9.466;2023-04-24T12:35:32;2.47;;;0.40;;
12972;SDS011;6551;51.056;9.466;2023-04-24T12:38:08;0.70;;;0.37;;
12972;SDS011;6551;51.056;9.466;2023-04-24T12:40:37;0.90;;;0.40;;
12972;SDS011;6551;51.056;9.466;2023-04-24T12:43:17;3.17;;;0.40;;
12972;SDS011;6551;51.056;9.466;2023-04-24T12:45:44;0.40;;;0.30;;
12972;SDS011;6551;51.056;9.466;2023-04-24T12:48:10;0.70;;;0.30;;
12972;SDS011;6551;51.056;9.466;2023-04-24T12:50:40;0.40;;;0.40;;
12972;SDS011;6551;51.056;9.466;2023-04-24T12:53:07;0.80;;;0.40;;
12972;SDS011;6551;51.056;9.466;2023-04-24T12:55:34;0.40;;;0.40;;
12972;SDS011;6551;51.056;9.466;2023-04-24T12:58:02;0.50;;;0.50;;
12972;SDS011;6551;51.056;9.466;2023-04-24T13:00:28;1.13;;;0.80;;
12972;SDS011;6551;51.056;9.466;2023-04-24T13:02:54;0.70;;;0.70;;
12972;SDS011;6551;51.056;9.466;2023-04-24T13:05:20;0.97;;;0.87;;
12972;SDS011;6551;51.056;9.466;2023-04-24T13:07:46;1.47;;;0.80;;
12972;SDS011;6551;51.056;9.466;2023-04-24T13:10:11;2.20;;;1.40;;
12972;SDS011;6551;51.056;9.466;2023-04-24T13:12:38;1.20;;;1.10;;
12972;SDS011;6551;51.056;9.466;2023-04-24T13:15:05;0.70;;;0.70;;
12972;SDS011;6551;51.056;9.466;2023-04-24T13:17:32;1.00;;;0.90;;
12972;SDS011;6551;51.056;9.466;2023-04-24T13:19:59;1.23;;;1.00;;
12972;SDS011;6551;51.056;9.466;2023-04-24T13:22:25;1.07;;;0.97;;
12972;SDS011;6551;51.056;9.466;2023-04-24T13:24:51;1.17;;;1.07;;
12972;SDS011;6551;51.056;9.466;2023-04-24T13:27:17;1.13;;;1.03;;
12972;SDS011;6551;51.056;9.466;2023-04-24T13:29:43;1.00;;;1.00;;
12972;SDS011;6551;51.056;9.466;2023-04-24T13:32:12;1.37;;;1.00;;
12972;SDS011;6551;51.056;9.466;2023-04-24T13:34:37;1.40;;;1.13;;
12972;SDS011;6551;51.056;9.466;2023-04-24T13:37:04;1.30;;;1.00;;
12972;SDS011;6551;51.056;9.466;2023-04-24T13:39:30;1.50;;;1.40;;
12972;SDS011;6551;51.056;9.466;2023-04-24T13:41:57;1.37;;;1.27;;
12972;SDS011;6551;51.056;9.466;2023-04-24T13:44:23;1.40;;;1.27;;
12972;SDS011;6551;51.056;9.466;2023-04-24T13:46:52;1.90;;;1.00;;
12972;SDS011;6551;51.056;9.466;2023-04-24T13:49:21;1.07;;;0.97;;
12972;SDS011;6551;51.056;9.466;2023-04-24T13:51:51;2.80;;;1.37;;
12972;SDS011;6551;51.056;9.466;2023-04-24T13:54:20;1.40;;;1.30;;
12972;SDS011;6551;51.056;9.466;2023-04-24T13:56:50;1.27;;;1.17;;
12972;SDS011;6551;51.056;9.466;2023-04-24T13:59:16;2.07;;;1.67;;
12972;SDS011;6551;51.056;9.466;2023-04-24T14:01:44;2.00;;;1.70;;
12972;SDS011;6551;51.056;9.466;2023-04-24T14:04:10;1.60;;;1.50;;
12972;SDS011;6551;51.056;9.466;2023-04-24T14:06:37;3.10;;;1.57;;
12972;SDS011;6551;51.056;9.466;2023-04-24T14:09:04;1.90;;;1.50;;
12972;SDS011;6551;51.056;9.466;2023-04-24T14:11:31;2.60;;;1.80;;
12972;SDS011;6551;51.056;9.466;2023-04-24T14:13:57;4.23;;;2.17;;
12972;SDS011;6551;51.056;9.466;2023-04-24T14:16:24;2.20;;;2.00;;
12972;SDS011;6551;51.056;9.466;2023-04-24T14:18:51;2.33;;;1.63;;
12972;SDS011;6551;51.056;9.466;2023-04-24T14:21:17;1.93;;;1.80;;
12972;SDS011;6551;51.056;9.466;2023-04-24T14:23:43;4.53;;;2.17;;
12972;SDS011;6551;51.056;9.466;2023-04-24T14:26:09;2.53;;;2.33;;
12972;SDS011;6551;51.056;9.466;2023-04-24T14:28:35;2.57;;;2.37;;
12972;SDS011;6551;51.056;9.466;2023-04-24T14:31:00;3.43;;;1.80;;
12972;SDS011;6551;51.056;9.466;2023-04-24T14:33:26;2.03;;;1.80;;
12972;SDS011;6551;51.056;9.466;2023-04-24T14:35:52;2.10;;;1.73;;
12972;SDS011;6551;51.056;9.466;2023-04-24T14:38:18;2.00;;;1.70;;
12972;SDS011;6551;51.056;9.466;2023-04-24T14:40:43;2.40;;;1.97;;
12972;SDS011;6551;51.056;9.466;2023-04-24T14:43:09;4.70;;;2.03;;
12972;SDS011;6551;51.056;9.466;2023-04-24T14:45:36;2.33;;;1.60;;
12972;SDS011;6551;51.056;9.466;2023-04-24T14:48:04;1.90;;;1.50;;
12972;SDS011;6551;51.056;9.466;2023-04-24T14:50:30;2.33;;;1.40;;
12972;SDS011;6551;51.056;9.466;2023-04-24T14:52:55;3.83;;;2.00;;
12972;SDS011;6551;51.056;9.466;2023-04-24T14:55:22;3.03;;;1.80;;
12972;SDS011;6551;51.056;9.466;2023-04-24T14:57:49;2.97;;;1.90;;
12972;SDS011;6551;51.056;9.466;2023-04-24T15:00:17;2.40;;;1.80;;
12972;SDS011;6551;51.056;9.466;2023-04-24T15:02:43;3.67;;;2.00;;
12972;SDS011;6551;51.056;9.466;2023-04-24T15:05:09;4.50;;;2.20;;
12972;SDS011;6551;51.056;9.466;2023-04-24T15:07:40;2.10;;;1.80;;
12972;SDS011;6551;51.056;9.466;2023-04-24T15:10:06;4.30;;;2.33;;
12972;SDS011;6551;51.056;9.466;2023-04-24T15:12:33;4.30;;;2.20;;
12972;SDS011;6551;51.056;9.466;2023-04-24T15:15:00;3.43;;;2.10;;
12972;SDS011;6551;51.056;9.466;2023-04-24T15:17:26;5.97;;;2.53;;
12972;SDS011;6551;51.056;9.466;2023-04-24T15:19:53;5.80;;;2.50;;
12972;SDS011;6551;51.056;9.466;2023-04-24T15:22:20;3.63;;;2.30;;
12972;SDS011;6551;51.056;9.466;2023-04-24T15:24:46;2.40;;;2.10;;
12972;SDS011;6551;51.056;9.466;2023-04-24T15:27:11;3.67;;;2.60;;
12972;SDS011;6551;51.056;9.466;2023-04-24T15:29:37;5.77;;;2.30;;
12972;SDS011;6551;51.056;9.466;2023-04-24T15:32:03;4.73;;;2.80;;
12972;SDS011;6551;51.056;9.466;2023-04-24T15:34:30;5.70;;;2.60;;